createdAt,value
2022-10-01T00:00:03.087Z,86.08
2022-10-01T00:00:13.138Z,86.08
2022-10-01T00:00:23.011Z,86.08
2022-10-01T00:00:33.115Z,86.18
2022-10-01T00:00:42.999Z,86.18
2022-10-01T00:00:53.028Z,86.18
2022-10-01T00:01:03.182Z,86.18
2022-10-01T00:01:13.126Z,86.08
2022-10-01T00:01:23.106Z,86.08
2022-10-01T00:01:33.411Z,86.08
2022-10-01T00:01:43.080Z,86.08
2022-10-01T00:01:53.147Z,86.08
2022-10-01T00:02:03.107Z,86.08
2022-10-01T00:02:13.166Z,86.22
2022-10-01T00:02:23.051Z,86.12
2022-10-01T00:02:33.085Z,86.02
2022-10-01T00:02:43.100Z,85.97
2022-10-01T00:02:53.145Z,85.87
2022-10-01T00:03:03.115Z,85.87
2022-10-01T00:03:13.127Z,85.87
2022-10-01T00:03:23.103Z,85.87
2022-10-01T00:03:33.046Z,85.87
2022-10-01T00:03:43.104Z,85.87
2022-10-01T00:03:53.018Z,85.97
2022-10-01T00:04:03.055Z,85.97
2022-10-01T00:04:13.065Z,85.97
2022-10-01T00:04:23.007Z,85.97
2022-10-01T00:04:32.993Z,85.97
2022-10-01T00:04:42.988Z,85.97
2022-10-01T00:04:53.058Z,85.97
2022-10-01T00:05:03.103Z,86.08
2022-10-01T00:05:13.125Z,86.08
2022-10-01T00:05:23.043Z,86.08
2022-10-01T00:05:33.001Z,86.08
2022-10-01T00:05:43.100Z,86.08
2022-10-01T00:05:53.087Z,86.08
2022-10-01T00:06:03.029Z,86.18
2022-10-01T00:06:13.051Z,86.18
2022-10-01T00:06:23.090Z,86.18
2022-10-01T00:06:33.064Z,86.18
2022-10-01T00:06:43.124Z,86.29
2022-10-01T00:06:53.043Z,86.29
2022-10-01T00:07:03.002Z,86.29
2022-10-01T00:07:13.025Z,86.29
2022-10-01T00:07:23.095Z,86.39
2022-10-01T00:07:33.104Z,86.39
2022-10-01T00:07:42.997Z,86.39
2022-10-01T00:07:52.994Z,86.29
2022-10-01T00:08:03.091Z,86.29
2022-10-01T00:08:13.070Z,86.29
2022-10-01T00:08:22.994Z,86.29
2022-10-01T00:08:33.109Z,86.18
2022-10-01T00:08:43.078Z,86.18
2022-10-01T00:08:53.138Z,86.18
2022-10-01T00:09:03.080Z,86.18
2022-10-01T00:09:13.015Z,86.18
2022-10-01T00:09:23.072Z,86.18
2022-10-01T00:09:33.069Z,86.18
2022-10-01T00:09:43.070Z,86.29
2022-10-01T00:09:53.062Z,86.29
2022-10-01T00:10:02.993Z,86.29
2022-10-01T00:10:13.083Z,86.39
2022-10-01T00:10:23.041Z,86.29
2022-10-01T00:10:33.053Z,86.29
2022-10-01T00:10:43.040Z,86.29
2022-10-01T00:10:53.053Z,86.39
2022-10-01T00:11:02.994Z,86.39
2022-10-01T00:11:13.005Z,86.39
2022-10-01T00:11:23.106Z,86.39
2022-10-01T00:11:33.334Z,86.39
2022-10-01T00:11:43.002Z,86.39
2022-10-01T00:11:53.064Z,86.29
2022-10-01T00:12:02.998Z,86.39
2022-10-01T00:12:13.106Z,86.39
2022-10-01T00:12:23.041Z,86.39
2022-10-01T00:12:33.052Z,86.39
2022-10-01T00:12:43.073Z,86.39
2022-10-01T00:12:53.002Z,86.39
2022-10-01T00:13:03.085Z,86.39
2022-10-01T00:13:13.016Z,86.39
2022-10-01T00:13:22.992Z,86.49
2022-10-01T00:13:33.048Z,86.49
2022-10-01T00:13:43.027Z,86.70
2022-10-01T00:13:53.111Z,86.80
2022-10-01T00:14:03.128Z,86.80
2022-10-01T00:14:13.062Z,86.80
2022-10-01T00:14:23.047Z,86.80
2022-10-01T00:14:33.055Z,86.76
2022-10-01T00:14:43.009Z,86.76
2022-10-01T00:14:53.054Z,86.80
2022-10-01T00:15:05.945Z,86.76
2022-10-01T00:15:13.734Z,86.76
2022-10-01T00:15:23.038Z,86.76
2022-10-01T00:15:33.050Z,86.66
2022-10-01T00:15:42.993Z,86.66
2022-10-01T00:15:53.106Z,86.66
2022-10-01T00:16:03.025Z,86.55
2022-10-01T00:16:13.122Z,86.55
2022-10-01T00:16:23.151Z,86.55
2022-10-01T00:16:33.148Z,86.55
2022-10-01T00:16:43.173Z,86.55
2022-10-01T00:16:53.134Z,86.66
2022-10-01T00:17:03.111Z,86.66
2022-10-01T00:17:13.042Z,86.66
2022-10-01T00:17:23.033Z,86.66
2022-10-01T00:17:32.991Z,86.66
2022-10-01T00:17:43.068Z,86.66
2022-10-01T00:17:52.996Z,86.55
2022-10-01T00:18:03.057Z,86.45
2022-10-01T00:18:13.073Z,86.45
2022-10-01T00:18:23.034Z,86.35
2022-10-01T00:18:33.011Z,86.24
2022-10-01T00:18:43.087Z,86.24
2022-10-01T00:18:53.031Z,86.24
2022-10-01T00:19:02.994Z,86.15
2022-10-01T00:19:13.118Z,86.04
2022-10-01T00:19:23.022Z,86.04
2022-10-01T00:19:33.133Z,86.04
2022-10-01T00:19:43.071Z,86.04
2022-10-01T00:19:53.095Z,86.04
2022-10-01T00:20:10.546Z,86.04
2022-10-01T00:20:14.562Z,86.04
2022-10-01T00:20:22.990Z,86.04
2022-10-01T00:20:33.034Z,86.04
2022-10-01T00:20:43.086Z,86.04
2022-10-01T00:20:53.101Z,86.15
2022-10-01T00:21:03.016Z,86.15
2022-10-01T00:21:13.099Z,86.15
2022-10-01T00:21:23.101Z,86.15
2022-10-01T00:21:33.388Z,86.15
2022-10-01T00:21:43.104Z,86.15
2022-10-01T00:21:53.030Z,86.15
2022-10-01T00:22:03.110Z,86.24
2022-10-01T00:22:13.061Z,86.24
2022-10-01T00:22:23.100Z,86.45
2022-10-01T00:22:33.049Z,86.55
2022-10-01T00:22:43.094Z,86.66
2022-10-01T00:22:53.039Z,86.76
2022-10-01T00:23:03.060Z,86.76
2022-10-01T00:23:13.014Z,86.87
2022-10-01T00:23:23.000Z,86.87
2022-10-01T00:23:33.000Z,86.97
2022-10-01T00:23:43.092Z,87.07
2022-10-01T00:23:53.097Z,87.07
2022-10-01T00:24:03.118Z,87.03
2022-10-01T00:24:13.050Z,87.07
2022-10-01T00:24:22.989Z,87.13
2022-10-01T00:24:33.022Z,87.54
2022-10-01T00:24:43.000Z,87.85
2022-10-01T00:24:53.091Z,88.17
2022-10-01T00:25:03.081Z,88.47
2022-10-01T00:25:12.998Z,88.68
2022-10-01T00:25:23.027Z,88.89
2022-10-01T00:25:33.114Z,88.95
2022-10-01T00:25:43.003Z,88.95
2022-10-01T00:25:53.078Z,88.95
2022-10-01T00:26:03.094Z,88.84
2022-10-01T00:26:13.031Z,88.74
2022-10-01T00:26:23.018Z,88.64
2022-10-01T00:26:33.082Z,88.64
2022-10-01T00:26:43.145Z,88.49
2022-10-01T00:26:53.079Z,88.39
2022-10-01T00:27:03.059Z,88.29
2022-10-01T00:27:13.048Z,88.18
2022-10-01T00:27:23.006Z,88.08
2022-10-01T00:27:33.018Z,87.98
2022-10-01T00:27:43.014Z,87.87
2022-10-01T00:27:53.077Z,87.73
2022-10-01T00:28:03.064Z,87.63
2022-10-01T00:28:13.093Z,87.42
2022-10-01T00:28:23.137Z,87.22
2022-10-01T00:28:33.075Z,87.12
2022-10-01T00:28:43.018Z,87.01
2022-10-01T00:28:53.072Z,86.87
2022-10-01T00:29:03.076Z,86.77
2022-10-01T00:29:13.079Z,86.56
2022-10-01T00:29:23.002Z,86.46
2022-10-01T00:29:33.014Z,86.25
2022-10-01T00:29:43.029Z,86.15
2022-10-01T00:29:53.022Z,86.00
2022-10-01T00:30:03.107Z,85.90
2022-10-01T00:30:13.003Z,85.70
2022-10-01T00:30:23.054Z,85.49
2022-10-01T00:30:36.151Z,85.39
2022-10-01T00:30:43.070Z,85.18
2022-10-01T00:30:53.118Z,84.94
2022-10-01T00:31:03.125Z,84.84
2022-10-01T00:31:13.148Z,84.63
2022-10-01T00:31:23.114Z,84.53
2022-10-01T00:31:33.552Z,84.42
2022-10-01T00:31:43.207Z,84.32
2022-10-01T00:31:53.211Z,84.12
2022-10-01T00:32:03.173Z,83.87
2022-10-01T00:32:13.067Z,83.67
2022-10-01T00:32:23.095Z,83.56
2022-10-01T00:32:33.049Z,83.46
2022-10-01T00:32:43.106Z,83.36
2022-10-01T00:32:53.031Z,83.15
2022-10-01T00:33:02.991Z,83.05
2022-10-01T00:33:13.019Z,82.84
2022-10-01T00:33:22.992Z,82.70
2022-10-01T00:33:33.047Z,82.60
2022-10-01T00:33:43.044Z,82.50
2022-10-01T00:33:53.054Z,82.40
2022-10-01T00:34:03.022Z,82.29
2022-10-01T00:34:13.044Z,82.09
2022-10-01T00:34:23.010Z,82.09
2022-10-01T00:34:33.063Z,81.99
2022-10-01T00:34:43.053Z,81.88
2022-10-01T00:34:53.065Z,81.74
2022-10-01T00:35:03.033Z,81.64
2022-10-01T00:35:13.034Z,81.54
2022-10-01T00:35:23.037Z,81.34
2022-10-01T00:35:33.074Z,81.34
2022-10-01T00:35:43.020Z,81.23
2022-10-01T00:35:53.090Z,81.13
2022-10-01T00:36:03.061Z,81.13
2022-10-01T00:36:13.029Z,80.92
2022-10-01T00:36:23.122Z,80.82
2022-10-01T00:36:33.084Z,80.72
2022-10-01T00:36:43.047Z,80.62
2022-10-01T00:36:53.010Z,80.51
2022-10-01T00:37:03.001Z,80.37
2022-10-01T00:37:13.019Z,80.27
2022-10-01T00:37:22.998Z,80.17
2022-10-01T00:37:33.069Z,80.17
2022-10-01T00:37:43.062Z,80.07
2022-10-01T00:37:53.090Z,79.96
2022-10-01T00:38:03.033Z,79.86
2022-10-01T00:38:13.046Z,79.86
2022-10-01T00:38:23.066Z,79.75
2022-10-01T00:38:33.064Z,79.66
2022-10-01T00:38:43.008Z,79.55
2022-10-01T00:38:53.104Z,79.41
2022-10-01T00:39:02.988Z,79.31
2022-10-01T00:39:13.011Z,79.31
2022-10-01T00:39:23.037Z,79.21
2022-10-01T00:39:33.047Z,79.11
2022-10-01T00:39:43.007Z,79.00
2022-10-01T00:39:53.092Z,78.90
2022-10-01T00:40:02.992Z,78.90
2022-10-01T00:40:13.125Z,78.80
2022-10-01T00:40:23.092Z,78.70
2022-10-01T00:40:32.992Z,78.59
2022-10-01T00:40:43.054Z,78.59
2022-10-01T00:40:53.007Z,78.45
2022-10-01T00:41:03.035Z,78.35
2022-10-01T00:41:13.005Z,78.25
2022-10-01T00:41:23.111Z,78.15
2022-10-01T00:41:33.576Z,78.05
2022-10-01T00:41:43.041Z,77.94
2022-10-01T00:41:53.045Z,77.84
2022-10-01T00:42:03.047Z,77.73
2022-10-01T00:42:13.083Z,77.64
2022-10-01T00:42:23.104Z,77.53
2022-10-01T00:42:33.123Z,77.43
2022-10-01T00:42:43.134Z,77.33
2022-10-01T00:42:53.104Z,77.23
2022-10-01T00:43:02.999Z,77.12
2022-10-01T00:43:13.019Z,77.02
2022-10-01T00:43:23.005Z,76.98
2022-10-01T00:43:32.993Z,76.88
2022-10-01T00:43:43.076Z,76.78
2022-10-01T00:43:52.990Z,76.68
2022-10-01T00:44:03.061Z,76.57
2022-10-01T00:44:13.058Z,76.47
2022-10-01T00:44:23.036Z,76.37
2022-10-01T00:44:33.102Z,76.27
2022-10-01T00:44:43.020Z,76.27
2022-10-01T00:44:53.082Z,76.17
2022-10-01T00:45:03.057Z,76.17
2022-10-01T00:45:13.053Z,76.06
2022-10-01T00:45:23.097Z,75.93
2022-10-01T00:45:33.083Z,75.82
2022-10-01T00:45:43.075Z,75.72
2022-10-01T00:45:53.124Z,75.72
2022-10-01T00:46:03.195Z,75.62
2022-10-01T00:46:13.084Z,75.52
2022-10-01T00:46:23.130Z,75.52
2022-10-01T00:46:33.103Z,75.52
2022-10-01T00:46:43.114Z,75.52
2022-10-01T00:46:53.051Z,75.52
2022-10-01T00:47:03.002Z,75.52
2022-10-01T00:47:13.008Z,75.52
2022-10-01T00:47:22.998Z,75.42
2022-10-01T00:47:33.121Z,75.31
2022-10-01T00:47:43.109Z,75.21
2022-10-01T00:47:53.102Z,75.21
2022-10-01T00:48:03.069Z,75.21
2022-10-01T00:48:13.005Z,75.21
2022-10-01T00:48:23.074Z,75.21
2022-10-01T00:48:33.048Z,75.10
2022-10-01T00:48:43.111Z,75.10
2022-10-01T00:48:53.092Z,75.10
2022-10-01T00:49:03.110Z,75.10
2022-10-01T00:49:13.053Z,75.10
2022-10-01T00:49:23.013Z,75.10
2022-10-01T00:49:33.058Z,75.10
2022-10-01T00:49:43.003Z,75.10
2022-10-01T00:49:55.452Z,75.01
2022-10-01T00:50:03.046Z,75.01
2022-10-01T00:50:13.065Z,75.01
2022-10-01T00:50:23.002Z,74.90
2022-10-01T00:50:33.057Z,74.87
2022-10-01T00:50:43.053Z,74.87
2022-10-01T00:50:53.074Z,74.87
2022-10-01T00:51:03.051Z,74.87
2022-10-01T00:51:13.059Z,74.87
2022-10-01T00:51:23.021Z,74.87
2022-10-01T00:51:33.389Z,74.87
2022-10-01T00:51:43.010Z,74.87
2022-10-01T00:51:53.098Z,74.87
2022-10-01T00:52:03.046Z,74.76
2022-10-01T00:52:13.047Z,74.76
2022-10-01T00:52:23.003Z,74.76
2022-10-01T00:52:33.116Z,74.76
2022-10-01T00:52:43.059Z,74.66
2022-10-01T00:52:53.119Z,74.66
2022-10-01T00:53:03.113Z,74.66
2022-10-01T00:53:12.991Z,74.66
2022-10-01T00:53:23.067Z,74.66
2022-10-01T00:53:33.073Z,74.76
2022-10-01T00:53:43.005Z,74.76
2022-10-01T00:53:52.998Z,74.66
2022-10-01T00:54:03.058Z,74.56
2022-10-01T00:54:13.080Z,74.56
2022-10-01T00:54:23.090Z,74.56
2022-10-01T00:54:33.033Z,74.46
2022-10-01T00:54:43.078Z,74.46
2022-10-01T00:54:53.073Z,74.56
2022-10-01T00:55:03.121Z,74.56
2022-10-01T00:55:13.038Z,74.56
2022-10-01T00:55:23.113Z,74.56
2022-10-01T00:55:32.998Z,74.56
2022-10-01T00:55:43.072Z,74.56
2022-10-01T00:55:53.033Z,74.56
2022-10-01T00:56:03.057Z,74.56
2022-10-01T00:56:13.016Z,74.56
2022-10-01T00:56:23.110Z,74.46
2022-10-01T00:56:33.057Z,74.46
2022-10-01T00:56:43.118Z,74.35
2022-10-01T00:56:53.113Z,74.35
2022-10-01T00:57:03.003Z,74.35
2022-10-01T00:57:13.084Z,74.35
2022-10-01T00:57:23.060Z,74.35
2022-10-01T00:57:33.004Z,74.26
2022-10-01T00:57:43.120Z,74.35
2022-10-01T00:57:53.019Z,74.35
2022-10-01T00:58:03.097Z,74.35
2022-10-01T00:58:13.078Z,74.35
2022-10-01T00:58:23.016Z,74.35
2022-10-01T00:58:33.079Z,74.35
2022-10-01T00:58:43.116Z,74.26
2022-10-01T00:58:53.129Z,74.26
2022-10-01T00:59:03.006Z,74.26
2022-10-01T00:59:13.020Z,74.15
2022-10-01T00:59:23.053Z,74.15
2022-10-01T00:59:33.034Z,74.15
2022-10-01T00:59:43.038Z,74.15
2022-10-01T00:59:53.113Z,74.15
2022-10-01T01:00:03.000Z,74.15
2022-10-01T01:00:13.004Z,74.15
2022-10-01T01:00:23.088Z,74.15
2022-10-01T01:00:33.076Z,74.15
2022-10-01T01:00:43.047Z,74.05
2022-10-01T01:00:53.120Z,74.05
2022-10-01T01:01:03.132Z,74.05
2022-10-01T01:01:13.083Z,74.05
2022-10-01T01:01:23.138Z,74.05
2022-10-01T01:01:33.428Z,74.15
2022-10-01T01:01:43.097Z,74.15
2022-10-01T01:01:53.216Z,74.15
2022-10-01T01:02:03.171Z,74.15
2022-10-01T01:02:13.111Z,74.15
2022-10-01T01:02:23.035Z,74.15
2022-10-01T01:02:33.081Z,74.15
2022-10-01T01:02:43.069Z,74.15
2022-10-01T01:02:53.004Z,74.26
2022-10-01T01:03:03.099Z,74.26
2022-10-01T01:03:13.106Z,74.15
2022-10-01T01:03:23.039Z,74.15
2022-10-01T01:03:33.059Z,74.15
2022-10-01T01:03:43.072Z,74.05
2022-10-01T01:03:53.031Z,74.05
2022-10-01T01:04:03.033Z,74.05
2022-10-01T01:04:13.122Z,74.05
2022-10-01T01:04:23.034Z,73.94
2022-10-01T01:04:33.114Z,73.85
2022-10-01T01:04:42.992Z,73.85
2022-10-01T01:04:53.098Z,73.85
2022-10-01T01:05:03.077Z,73.94
2022-10-01T01:05:13.102Z,73.85
2022-10-01T01:05:23.074Z,73.85
2022-10-01T01:05:33.055Z,73.85
2022-10-01T01:05:43.100Z,73.85
2022-10-01T01:05:53.047Z,73.85
2022-10-01T01:06:03.051Z,73.85
2022-10-01T01:06:13.104Z,73.85
2022-10-01T01:06:23.077Z,73.74
2022-10-01T01:06:33.003Z,73.64
2022-10-01T01:06:43.037Z,73.64
2022-10-01T01:06:53.002Z,73.64
2022-10-01T01:07:03.024Z,73.54
2022-10-01T01:07:13.073Z,73.64
2022-10-01T01:07:22.987Z,73.64
2022-10-01T01:07:33.115Z,73.64
2022-10-01T01:07:43.095Z,73.64
2022-10-01T01:07:53.026Z,73.64
2022-10-01T01:08:03.106Z,73.64
2022-10-01T01:08:13.050Z,73.64
2022-10-01T01:08:23.153Z,73.64
2022-10-01T01:08:33.080Z,73.64
2022-10-01T01:08:43.054Z,73.64
2022-10-01T01:08:53.065Z,73.64
2022-10-01T01:09:03.042Z,73.64
2022-10-01T01:09:13.038Z,73.64
2022-10-01T01:09:23.109Z,73.54
2022-10-01T01:09:33.037Z,73.50
2022-10-01T01:09:43.027Z,73.54
2022-10-01T01:09:53.102Z,73.54
2022-10-01T01:10:03.038Z,73.40
2022-10-01T01:10:13.128Z,73.40
2022-10-01T01:10:23.072Z,73.50
2022-10-01T01:10:33.084Z,73.50
2022-10-01T01:10:43.034Z,73.54
2022-10-01T01:10:52.994Z,73.50
2022-10-01T01:11:03.071Z,73.54
2022-10-01T01:11:13.083Z,73.50
2022-10-01T01:11:22.988Z,73.50
2022-10-01T01:11:33.415Z,73.54
2022-10-01T01:11:43.101Z,73.50
2022-10-01T01:11:53.038Z,73.54
2022-10-01T01:12:03.099Z,73.50
2022-10-01T01:12:13.073Z,73.54
2022-10-01T01:12:23.026Z,73.50
2022-10-01T01:12:33.080Z,73.40
2022-10-01T01:12:43.005Z,73.44
2022-10-01T01:12:53.122Z,73.40
2022-10-01T01:13:03.001Z,73.40
2022-10-01T01:13:13.008Z,73.40
2022-10-01T01:13:23.112Z,73.30
2022-10-01T01:13:33.112Z,73.30
2022-10-01T01:13:43.052Z,73.30
2022-10-01T01:13:53.050Z,73.30
2022-10-01T01:14:03.011Z,73.40
2022-10-01T01:14:13.011Z,73.40
2022-10-01T01:14:23.115Z,73.30
2022-10-01T01:14:33.027Z,73.30
2022-10-01T01:14:43.026Z,73.30
2022-10-01T01:14:53.082Z,73.20
2022-10-01T01:15:03.008Z,73.20
2022-10-01T01:15:13.019Z,73.20
2022-10-01T01:15:23.017Z,73.20
2022-10-01T01:15:33.208Z,73.20
2022-10-01T01:15:43.027Z,73.20
2022-10-01T01:15:53.101Z,73.20
2022-10-01T01:16:03.064Z,73.20
2022-10-01T01:16:13.173Z,73.20
2022-10-01T01:16:23.143Z,73.30
2022-10-01T01:16:33.104Z,73.30
2022-10-01T01:16:43.022Z,73.30
2022-10-01T01:16:53.111Z,73.30
2022-10-01T01:17:03.075Z,73.30
2022-10-01T01:17:13.093Z,73.20
2022-10-01T01:17:23.109Z,73.20
2022-10-01T01:17:33.087Z,73.20
2022-10-01T01:17:43.034Z,73.20
2022-10-01T01:17:53.053Z,73.20
2022-10-01T01:18:03.061Z,73.20
2022-10-01T01:18:13.079Z,73.20
2022-10-01T01:18:23.029Z,73.20
2022-10-01T01:18:33.108Z,73.30
2022-10-01T01:18:43.042Z,73.30
2022-10-01T01:18:53.071Z,73.30
2022-10-01T01:19:03.028Z,73.30
2022-10-01T01:19:13.053Z,73.20
2022-10-01T01:19:23.067Z,73.10
2022-10-01T01:19:32.996Z,73.10
2022-10-01T01:19:43.000Z,72.99
2022-10-01T01:19:53.074Z,72.99
2022-10-01T01:20:03.096Z,72.99
2022-10-01T01:20:13.066Z,72.99
2022-10-01T01:20:23.053Z,73.03
2022-10-01T01:20:33.083Z,72.99
2022-10-01T01:20:43.003Z,72.99
2022-10-01T01:20:53.081Z,72.99
2022-10-01T01:21:03.067Z,72.99
2022-10-01T01:21:13.056Z,72.89
2022-10-01T01:21:23.104Z,72.99
2022-10-01T01:21:33.461Z,72.99
2022-10-01T01:21:43.060Z,73.03
2022-10-01T01:21:53.051Z,72.99
2022-10-01T01:22:03.000Z,73.03
2022-10-01T01:22:13.030Z,73.03
2022-10-01T01:22:23.111Z,73.03
2022-10-01T01:22:33.131Z,73.03
2022-10-01T01:22:43.018Z,73.13
2022-10-01T01:22:53.005Z,73.13
2022-10-01T01:23:03.014Z,73.13
2022-10-01T01:23:12.991Z,73.13
2022-10-01T01:23:23.043Z,73.13
2022-10-01T01:23:33.049Z,73.13
2022-10-01T01:23:43.067Z,73.13
2022-10-01T01:23:53.018Z,73.23
2022-10-01T01:24:03.076Z,73.23
2022-10-01T01:24:13.104Z,73.23
2022-10-01T01:24:23.025Z,73.23
2022-10-01T01:24:33.012Z,73.23
2022-10-01T01:24:43.087Z,73.23
2022-10-01T01:24:53.095Z,73.23
2022-10-01T01:25:03.064Z,73.23
2022-10-01T01:25:13.050Z,73.23
2022-10-01T01:25:23.011Z,73.23
2022-10-01T01:25:33.061Z,73.23
2022-10-01T01:25:43.098Z,73.23
2022-10-01T01:25:53.020Z,73.23
2022-10-01T01:26:03.033Z,73.13
2022-10-01T01:26:13.061Z,73.13
2022-10-01T01:26:23.021Z,73.13
2022-10-01T01:26:33.139Z,73.23
2022-10-01T01:26:43.112Z,73.23
2022-10-01T01:26:53.119Z,73.23
2022-10-01T01:27:03.119Z,73.33
2022-10-01T01:27:13.124Z,73.23
2022-10-01T01:27:23.022Z,73.23
2022-10-01T01:27:33.024Z,73.23
2022-10-01T01:27:43.151Z,73.23
2022-10-01T01:27:53.054Z,73.23
2022-10-01T01:28:03.122Z,73.33
2022-10-01T01:28:13.106Z,73.33
2022-10-01T01:28:23.191Z,73.33
2022-10-01T01:28:33.028Z,73.44
2022-10-01T01:28:43.033Z,73.44
2022-10-01T01:28:53.068Z,73.44
2022-10-01T01:29:03.079Z,73.44
2022-10-01T01:29:13.052Z,73.44
2022-10-01T01:29:23.068Z,73.44
2022-10-01T01:29:33.103Z,73.44
2022-10-01T01:29:43.108Z,73.44
2022-10-01T01:29:53.017Z,73.44
2022-10-01T01:30:03.084Z,73.44
2022-10-01T01:30:13.112Z,73.44
2022-10-01T01:30:23.120Z,73.44
2022-10-01T01:30:33.010Z,73.44
2022-10-01T01:30:43.064Z,73.33
2022-10-01T01:30:53.133Z,73.33
2022-10-01T01:31:03.093Z,73.33
2022-10-01T01:31:13.135Z,73.33
2022-10-01T01:31:23.211Z,73.33
2022-10-01T01:31:33.424Z,73.33
2022-10-01T01:31:43.090Z,73.44
2022-10-01T01:31:53.115Z,73.44
2022-10-01T01:32:03.066Z,73.44
2022-10-01T01:32:14.980Z,73.44
2022-10-01T01:32:22.996Z,73.44
2022-10-01T01:32:33.009Z,73.44
2022-10-01T01:32:43.124Z,73.33
2022-10-01T01:32:53.041Z,73.33
2022-10-01T01:33:03.043Z,73.44
2022-10-01T01:33:12.996Z,73.44
2022-10-01T01:33:23.025Z,73.44
2022-10-01T01:33:33.031Z,73.44
2022-10-01T01:33:43.076Z,73.44
2022-10-01T01:33:53.019Z,73.44
2022-10-01T01:34:03.060Z,73.44
2022-10-01T01:34:12.998Z,73.44
2022-10-01T01:34:22.992Z,73.44
2022-10-01T01:34:33.024Z,73.44
2022-10-01T01:34:43.086Z,73.44
2022-10-01T01:34:53.016Z,73.44
2022-10-01T01:35:03.089Z,73.44
2022-10-01T01:35:13.089Z,73.44
2022-10-01T01:35:23.042Z,73.44
2022-10-01T01:35:33.117Z,73.54
2022-10-01T01:35:43.007Z,73.44
2022-10-01T01:35:53.141Z,73.54
2022-10-01T01:36:03.015Z,73.54
2022-10-01T01:36:13.069Z,73.54
2022-10-01T01:36:22.996Z,73.54
2022-10-01T01:36:32.999Z,73.54
2022-10-01T01:36:43.123Z,73.54
2022-10-01T01:36:53.104Z,73.54
2022-10-01T01:37:03.085Z,73.54
2022-10-01T01:37:13.051Z,73.54
2022-10-01T01:37:23.023Z,73.54
2022-10-01T01:37:33.104Z,73.54
2022-10-01T01:37:43.059Z,73.54
2022-10-01T01:37:53.049Z,73.54
2022-10-01T01:38:03.017Z,73.54
2022-10-01T01:38:13.042Z,73.54
2022-10-01T01:38:23.121Z,73.54
2022-10-01T01:38:33.019Z,73.54
2022-10-01T01:38:43.149Z,73.54
2022-10-01T01:38:53.133Z,73.54
2022-10-01T01:39:03.078Z,73.54
2022-10-01T01:39:13.014Z,73.54
2022-10-01T01:39:23.087Z,73.64
2022-10-01T01:39:33.033Z,73.64
2022-10-01T01:39:43.081Z,73.64
2022-10-01T01:39:53.037Z,73.64
2022-10-01T01:40:03.060Z,73.54
2022-10-01T01:40:13.012Z,73.54
2022-10-01T01:40:23.002Z,73.54
2022-10-01T01:40:33.043Z,73.54
2022-10-01T01:40:43.024Z,73.54
2022-10-01T01:40:53.024Z,73.54
2022-10-01T01:41:03.122Z,73.54
2022-10-01T01:41:13.066Z,73.54
2022-10-01T01:41:23.077Z,73.64
2022-10-01T01:41:33.339Z,73.64
2022-10-01T01:41:43.013Z,73.54
2022-10-01T01:41:53.123Z,73.54
2022-10-01T01:42:03.091Z,73.54
2022-10-01T01:42:13.026Z,73.54
2022-10-01T01:42:23.114Z,73.54
2022-10-01T01:42:33.026Z,73.64
2022-10-01T01:42:43.095Z,73.54
2022-10-01T01:42:53.067Z,73.54
2022-10-01T01:43:03.025Z,73.54
2022-10-01T01:43:13.049Z,73.54
2022-10-01T01:43:23.106Z,73.44
2022-10-01T01:43:33.038Z,73.44
2022-10-01T01:43:43.060Z,73.44
2022-10-01T01:43:53.055Z,73.44
2022-10-01T01:44:03.047Z,73.44
2022-10-01T01:44:13.115Z,73.44
2022-10-01T01:44:23.079Z,73.54
2022-10-01T01:44:33.079Z,73.54
2022-10-01T01:44:43.019Z,73.54
2022-10-01T01:44:53.027Z,73.54
2022-10-01T01:45:03.046Z,73.44
2022-10-01T01:45:13.038Z,73.44
2022-10-01T01:45:23.156Z,73.44
2022-10-01T01:45:33.087Z,73.44
2022-10-01T01:45:43.192Z,73.44
2022-10-01T01:45:53.064Z,73.44
2022-10-01T01:46:03.051Z,73.54
2022-10-01T01:46:13.218Z,73.54
2022-10-01T01:46:23.131Z,73.54
2022-10-01T01:46:33.025Z,73.44
2022-10-01T01:46:43.047Z,73.54
2022-10-01T01:46:53.102Z,73.44
2022-10-01T01:47:03.068Z,73.44
2022-10-01T01:47:13.040Z,73.44
2022-10-01T01:47:23.016Z,73.44
2022-10-01T01:47:33.107Z,73.44
2022-10-01T01:47:43.012Z,73.44
2022-10-01T01:47:53.029Z,73.44
2022-10-01T01:48:03.126Z,73.44
2022-10-01T01:48:13.123Z,73.44
2022-10-01T01:48:23.005Z,73.44
2022-10-01T01:48:33.035Z,73.33
2022-10-01T01:48:43.052Z,73.33
2022-10-01T01:48:53.033Z,73.33
2022-10-01T01:49:03.113Z,73.33
2022-10-01T01:49:13.070Z,73.33
2022-10-01T01:49:23.009Z,73.33
2022-10-01T01:49:33.032Z,73.44
2022-10-01T01:49:43.117Z,73.44
2022-10-01T01:49:53.009Z,73.44
2022-10-01T01:50:03.133Z,73.54
2022-10-01T01:50:13.104Z,73.54
2022-10-01T01:50:23.113Z,73.44
2022-10-01T01:50:33.056Z,73.44
2022-10-01T01:50:43.034Z,73.44
2022-10-01T01:50:53.130Z,73.44
2022-10-01T01:51:03.058Z,73.33
2022-10-01T01:51:13.109Z,73.33
2022-10-01T01:51:23.014Z,73.33
2022-10-01T01:51:33.384Z,73.33
2022-10-01T01:51:43.096Z,73.44
2022-10-01T01:51:53.119Z,73.44
2022-10-01T01:52:03.107Z,73.44
2022-10-01T01:52:13.111Z,73.44
2022-10-01T01:52:23.107Z,73.44
2022-10-01T01:52:33.062Z,73.44
2022-10-01T01:52:43.040Z,73.44
2022-10-01T01:52:53.025Z,73.44
2022-10-01T01:53:03.025Z,73.33
2022-10-01T01:53:13.038Z,73.33
2022-10-01T01:53:23.107Z,73.44
2022-10-01T01:53:32.989Z,73.44
2022-10-01T01:53:43.108Z,73.44
2022-10-01T01:53:53.035Z,73.44
2022-10-01T01:54:03.000Z,73.44
2022-10-01T01:54:13.093Z,73.44
2022-10-01T01:54:23.001Z,73.44
2022-10-01T01:54:33.118Z,73.44
2022-10-01T01:54:43.018Z,73.44
2022-10-01T01:54:53.081Z,73.44
2022-10-01T01:55:03.026Z,73.54
2022-10-01T01:55:13.074Z,73.54
2022-10-01T01:55:23.073Z,73.54
2022-10-01T01:55:33.055Z,73.54
2022-10-01T01:55:43.075Z,73.44
2022-10-01T01:55:53.015Z,73.44
2022-10-01T01:56:03.112Z,73.44
2022-10-01T01:56:13.089Z,73.44
2022-10-01T01:56:23.028Z,73.44
2022-10-01T01:56:32.992Z,73.44
2022-10-01T01:56:43.098Z,73.44
2022-10-01T01:56:53.084Z,73.44
2022-10-01T01:57:03.108Z,73.44
2022-10-01T01:57:12.989Z,73.44
2022-10-01T01:57:23.009Z,73.44
2022-10-01T01:57:33.081Z,73.44
2022-10-01T01:57:43.033Z,73.44
2022-10-01T01:57:53.052Z,73.54
2022-10-01T01:58:03.066Z,73.54
2022-10-01T01:58:13.112Z,73.54
2022-10-01T01:58:23.097Z,73.54
2022-10-01T01:58:32.996Z,73.54
2022-10-01T01:58:43.096Z,73.54
2022-10-01T01:58:53.042Z,73.44
2022-10-01T01:59:02.996Z,73.44
2022-10-01T01:59:12.991Z,73.44
2022-10-01T01:59:22.989Z,73.47
2022-10-01T01:59:33.115Z,73.44
2022-10-01T01:59:43.076Z,73.47
2022-10-01T01:59:53.089Z,73.44
2022-10-01T02:00:03.068Z,73.44
2022-10-01T02:00:13.092Z,73.44
2022-10-01T02:00:23.066Z,73.57
2022-10-01T02:00:33.082Z,73.54
2022-10-01T02:00:43.055Z,73.57
2022-10-01T02:00:53.020Z,73.57
2022-10-01T02:01:03.082Z,73.47
2022-10-01T02:01:13.131Z,73.47
2022-10-01T02:01:23.109Z,73.47
2022-10-01T02:01:33.541Z,73.47
2022-10-01T02:01:43.149Z,73.44
2022-10-01T02:01:53.170Z,73.36
2022-10-01T02:02:03.127Z,73.36
2022-10-01T02:02:13.194Z,73.36
2022-10-01T02:02:23.068Z,73.47
2022-10-01T02:02:33.254Z,73.47
2022-10-01T02:02:43.072Z,73.36
2022-10-01T02:02:53.059Z,73.33
2022-10-01T02:03:03.100Z,73.33
2022-10-01T02:03:13.034Z,73.33
2022-10-01T02:03:23.081Z,73.36
2022-10-01T02:03:33.031Z,73.36
2022-10-01T02:03:43.004Z,73.47
2022-10-01T02:03:53.029Z,73.47
2022-10-01T02:04:02.995Z,73.47
2022-10-01T02:04:13.073Z,73.44
2022-10-01T02:04:23.034Z,73.47
2022-10-01T02:04:33.086Z,73.44
2022-10-01T02:04:43.089Z,73.44
2022-10-01T02:04:53.025Z,73.47
2022-10-01T02:05:02.999Z,73.47
2022-10-01T02:05:12.997Z,73.47
2022-10-01T02:05:23.021Z,73.47
2022-10-01T02:05:33.077Z,73.47
2022-10-01T02:05:43.084Z,73.47
2022-10-01T02:05:53.004Z,73.44
2022-10-01T02:06:03.030Z,73.36
2022-10-01T02:06:13.016Z,73.36
2022-10-01T02:06:23.081Z,73.36
2022-10-01T02:06:33.028Z,73.36
2022-10-01T02:06:43.006Z,73.36
2022-10-01T02:06:53.031Z,73.36
2022-10-01T02:07:03.001Z,73.36
2022-10-01T02:07:13.081Z,73.36
2022-10-01T02:07:23.118Z,73.36
2022-10-01T02:07:33.051Z,73.36
2022-10-01T02:07:43.119Z,73.47
2022-10-01T02:07:53.121Z,73.47
2022-10-01T02:08:02.997Z,73.47
2022-10-01T02:08:13.083Z,73.47
2022-10-01T02:08:23.075Z,73.36
2022-10-01T02:08:33.109Z,73.36
2022-10-01T02:08:43.056Z,73.36